createdAt,value
2018-09-12T00:00:08.049Z,15.97
2018-09-12T00:02:37.022Z,16.00
2018-09-12T00:05:06.271Z,16.01
2018-09-12T00:07:35.245Z,15.99
2018-09-12T00:10:04.589Z,15.87
2018-09-12T00:12:33.598Z,15.87
2018-09-12T00:15:02.583Z,15.81
2018-09-12T00:17:31.610Z,15.84
2018-09-12T00:20:00.733Z,15.85
2018-09-12T00:22:29.755Z,15.70
2018-09-12T00:24:58.796Z,15.67
2018-09-12T00:27:27.813Z,15.55
2018-09-12T00:29:56.885Z,15.56
2018-09-12T00:32:25.855Z,15.43
2018-09-12T00:34:54.898Z,15.44
2018-09-12T00:37:24.019Z,15.43
2018-09-12T00:39:53.031Z,15.37
2018-09-12T00:42:22.114Z,15.25
2018-09-12T00:44:51.120Z,15.19
2018-09-12T00:47:20.504Z,15.16
2018-09-12T00:49:49.537Z,15.11
2018-09-12T00:52:18.551Z,15.15
2018-09-12T00:54:47.597Z,15.21
2018-09-12T00:57:16.637Z,15.42
2018-09-12T00:59:45.691Z,15.48
2018-09-12T01:02:14.725Z,15.59
2018-09-12T01:04:43.922Z,15.63
2018-09-12T01:07:12.898Z,15.68
2018-09-12T01:09:41.923Z,15.69
2018-09-12T01:12:11.383Z,15.67
2018-09-12T01:14:40.549Z,15.66
2018-09-12T01:17:09.564Z,15.65
2018-09-12T01:19:38.615Z,15.58
2018-09-12T01:22:07.681Z,15.48
2018-09-12T01:24:37.319Z,15.45
2018-09-12T01:27:06.164Z,15.35
2018-09-12T01:29:35.171Z,15.29
2018-09-12T01:32:04.212Z,15.25
2018-09-12T01:34:33.242Z,15.20
2018-09-12T01:37:02.275Z,15.13
2018-09-12T01:39:31.328Z,15.11
2018-09-12T01:42:01.107Z,15.20
2018-09-12T01:44:30.128Z,15.12
2018-09-12T01:46:59.151Z,15.08
2018-09-12T01:49:28.175Z,15.07
2018-09-12T01:51:57.235Z,14.96
2018-09-12T01:54:26.615Z,14.89
2018-09-12T01:56:55.639Z,14.87
2018-09-12T01:59:24.645Z,14.90
2018-09-12T02:01:54.115Z,14.87
2018-09-12T02:04:23.198Z,14.80
2018-09-12T02:06:52.522Z,14.80
2018-09-12T02:09:21.569Z,14.69
2018-09-12T02:11:50.579Z,14.67
2018-09-12T02:14:19.892Z,14.61
2018-09-12T02:16:48.915Z,14.58
2018-09-12T02:19:17.931Z,14.63
2018-09-12T02:21:46.971Z,14.59
2018-09-12T02:24:15.987Z,14.66
2018-09-12T02:26:45.299Z,14.59
2018-09-12T02:29:14.307Z,14.63
2018-09-12T02:31:43.306Z,14.57
2018-09-12T02:34:12.434Z,14.53
2018-09-12T02:36:41.593Z,14.50
2018-09-12T02:39:10.891Z,14.49
2018-09-12T02:41:39.943Z,14.53
2018-09-12T02:44:08.976Z,14.51
2018-09-12T02:46:38.028Z,14.52
2018-09-12T02:49:07.049Z,14.48
2018-09-12T02:51:36.089Z,14.51
2018-09-12T02:54:05.115Z,14.46
2018-09-12T02:56:34.593Z,14.43
2018-09-12T02:59:03.614Z,14.46
2018-09-12T03:01:32.618Z,14.49
2018-09-12T03:04:02.119Z,14.49
2018-09-12T03:06:31.119Z,14.52
2018-09-12T03:09:00.317Z,14.52
2018-09-12T03:11:29.359Z,14.52
2018-09-12T03:13:58.386Z,14.56
2018-09-12T03:16:27.420Z,14.57
2018-09-12T03:18:57.346Z,14.62
2018-09-12T03:21:26.804Z,14.64
2018-09-12T03:23:55.820Z,14.69
2018-09-12T03:26:24.869Z,14.70
2018-09-12T03:28:53.927Z,14.70
2018-09-12T03:31:22.944Z,14.68
2018-09-12T03:33:51.998Z,14.77
2018-09-12T03:36:21.103Z,14.81
2018-09-12T03:38:50.137Z,14.83
2018-09-12T03:41:19.185Z,14.78
2018-09-12T03:43:48.475Z,14.72
2018-09-12T03:46:17.511Z,14.68
2018-09-12T03:48:46.724Z,14.66
2018-09-12T03:51:15.773Z,14.62
2018-09-12T03:53:44.805Z,14.57
2018-09-12T03:56:13.837Z,14.59
2018-09-12T03:58:42.903Z,14.57
2018-09-12T04:01:12.251Z,14.55
2018-09-12T04:03:41.288Z,14.58
2018-09-12T04:06:10.288Z,14.58
2018-09-12T04:08:39.331Z,14.59
2018-09-12T04:11:08.354Z,14.56
2018-09-12T04:13:37.399Z,14.54
2018-09-12T04:16:06.484Z,14.54
2018-09-12T04:18:35.503Z,14.55
2018-09-12T04:21:04.543Z,14.54
2018-09-12T04:23:33.608Z,14.54
2018-09-12T04:26:02.807Z,14.54
2018-09-12T04:28:31.820Z,14.50
2018-09-12T04:31:01.150Z,14.49
2018-09-12T04:33:30.159Z,14.48
2018-09-12T04:35:59.166Z,14.50
2018-09-12T04:38:28.318Z,14.44
2018-09-12T04:40:57.360Z,14.53
2018-09-12T04:43:26.693Z,14.51
2018-09-12T04:45:55.720Z,14.54
2018-09-12T04:48:24.835Z,14.59
2018-09-12T04:50:53.808Z,14.69
2018-09-12T04:53:22.841Z,14.64
2018-09-12T04:55:52.139Z,14.60
2018-09-12T04:58:21.239Z,14.58
2018-09-12T05:00:50.291Z,14.59
2018-09-12T05:03:19.333Z,14.58
2018-09-12T05:05:48.328Z,14.55
2018-09-12T05:08:17.360Z,14.63
2018-09-12T05:10:46.405Z,14.69
2018-09-12T05:13:15.670Z,14.73
2018-09-12T05:15:44.925Z,14.76
2018-09-12T05:18:13.943Z,14.72
2018-09-12T05:20:42.982Z,14.73
2018-09-12T05:23:12.008Z,14.77
2018-09-12T05:25:41.135Z,14.82
2018-09-12T05:28:10.160Z,14.82
2018-09-12T05:30:39.204Z,14.91
2018-09-12T05:33:08.355Z,14.91
2018-09-12T05:35:37.383Z,14.93
2018-09-12T05:38:06.434Z,14.94
2018-09-12T05:40:35.467Z,14.94
2018-09-12T05:43:04.799Z,14.92
2018-09-12T05:45:33.828Z,14.95
2018-09-12T05:48:02.944Z,14.94
2018-09-12T05:50:31.939Z,15.00
2018-09-12T05:53:00.961Z,15.06
2018-09-12T05:55:30.031Z,15.10
2018-09-12T05:57:59.078Z,15.13
2018-09-12T06:00:28.194Z,15.17
2018-09-12T06:02:57.204Z,15.21
2018-09-12T06:05:26.232Z,15.41
2018-09-12T06:07:55.503Z,15.48
2018-09-12T06:10:24.523Z,15.53
2018-09-12T06:12:53.585Z,15.61
2018-09-12T06:15:22.680Z,15.65
2018-09-12T06:17:51.774Z,15.81
2018-09-12T06:20:20.831Z,15.95
2018-09-12T06:22:49.883Z,16.11
2018-09-12T06:25:18.915Z,16.30
2018-09-12T06:27:47.988Z,16.35
2018-09-12T06:30:17.032Z,16.43
2018-09-12T06:32:46.057Z,16.49
2018-09-12T06:35:15.087Z,16.63
2018-09-12T06:37:44.216Z,16.70
2018-09-12T06:40:13.271Z,16.82
2018-09-12T06:42:42.291Z,16.92
2018-09-12T06:45:11.318Z,17.10
2018-09-12T06:47:40.719Z,17.35
2018-09-12T06:50:09.799Z,17.45
2018-09-12T06:52:38.811Z,17.56
2018-09-12T06:55:07.843Z,17.86
2018-09-12T06:57:36.909Z,17.90
2018-09-12T07:00:06.655Z,18.02
2018-09-12T07:02:35.680Z,18.68
2018-09-12T07:05:04.843Z,18.84
2018-09-12T07:07:33.950Z,19.10
2018-09-12T07:10:02.895Z,19.38
2018-09-12T07:12:31.940Z,19.89
2018-09-12T07:15:01.979Z,20.17
2018-09-12T07:17:31.256Z,20.53
2018-09-12T07:20:00.278Z,20.66
2018-09-12T07:22:29.368Z,20.73
2018-09-12T07:24:58.436Z,20.77
2018-09-12T07:27:27.489Z,21.06
2018-09-12T07:29:56.483Z,21.13
2018-09-12T07:32:25.499Z,21.37
2018-09-12T07:34:54.568Z,21.33
2018-09-12T07:37:23.603Z,21.53
2018-09-12T07:39:52.631Z,21.58
2018-09-12T07:42:21.872Z,21.56
2018-09-12T07:44:50.892Z,21.82
2018-09-12T07:47:19.922Z,21.95
2018-09-12T07:49:48.951Z,21.97
2018-09-12T07:52:18.191Z,21.99
2018-09-12T07:54:47.274Z,22.04
2018-09-12T07:57:16.320Z,22.23
2018-09-12T07:59:45.480Z,22.41
2018-09-12T08:02:14.542Z,22.50
2018-09-12T08:04:49.919Z,22.38
2018-09-12T08:07:18.978Z,22.58
2018-09-12T08:09:47.987Z,22.82
2018-09-12T08:12:17.103Z,22.81
2018-09-12T08:14:46.083Z,22.89
2018-09-12T08:17:18.063Z,22.85
2018-09-12T08:19:47.143Z,22.84
2018-09-12T08:22:16.194Z,22.78
2018-09-12T08:24:45.705Z,22.88
2018-09-12T08:27:14.712Z,23.01
2018-09-12T08:29:43.728Z,22.97
2018-09-12T08:32:12.804Z,23.22
2018-09-12T08:34:41.785Z,23.31
2018-09-12T08:37:10.832Z,23.35
2018-09-12T08:39:39.887Z,23.42
2018-09-12T08:42:09.335Z,23.59
2018-09-12T08:44:38.340Z,23.73
2018-09-12T08:47:07.355Z,23.77
2018-09-12T08:49:36.385Z,23.83
2018-09-12T08:52:05.490Z,23.93
2018-09-12T08:54:34.536Z,23.92
2018-09-12T08:57:03.556Z,23.98
2018-09-12T08:59:32.923Z,24.12
2018-09-12T09:02:02.023Z,24.07
2018-09-12T09:04:31.112Z,24.25
2018-09-12T09:07:00.201Z,24.31
2018-09-12T09:09:29.203Z,24.45
2018-09-12T09:11:58.293Z,24.39
2018-09-12T09:14:27.316Z,24.57
2018-09-12T09:17:03.107Z,24.76
2018-09-12T09:19:32.116Z,24.68
2018-09-12T09:22:01.135Z,24.87
2018-09-12T09:24:30.175Z,24.87
2018-09-12T09:26:59.179Z,24.94
2018-09-12T09:29:28.317Z,24.84
2018-09-12T09:31:57.231Z,25.24
2018-09-12T09:34:26.319Z,25.47
2018-09-12T09:36:55.329Z,25.54
2018-09-12T09:39:24.376Z,25.62
2018-09-12T09:41:53.431Z,25.47
2018-09-12T09:44:22.445Z,25.55
2018-09-12T09:46:51.519Z,25.54
2018-09-12T09:49:20.500Z,25.91
2018-09-12T09:51:49.510Z,25.96
2018-09-12T09:54:24.860Z,26.08
2018-09-12T09:56:53.880Z,26.05
2018-09-12T09:59:22.923Z,26.31
2018-09-12T10:01:57.283Z,26.31
2018-09-12T10:04:31.724Z,26.24
2018-09-12T10:07:04.904Z,26.42
2018-09-12T10:09:34.125Z,26.39
2018-09-12T10:12:03.931Z,26.43
2018-09-12T10:14:33.331Z,26.58
2018-09-12T10:17:02.347Z,26.58
2018-09-12T10:19:31.352Z,26.88
2018-09-12T10:22:00.391Z,26.93
2018-09-12T10:24:29.411Z,26.85
2018-09-12T10:26:58.451Z,26.89
2018-09-12T10:29:27.451Z,27.08
2018-09-12T10:31:56.799Z,27.02
2018-09-12T10:34:25.816Z,27.31
2018-09-12T10:36:54.831Z,27.53
2018-09-12T10:39:23.864Z,27.52
2018-09-12T10:41:52.905Z,27.65
2018-09-12T10:44:21.943Z,27.89
2018-09-12T10:46:50.990Z,28.03
2018-09-12T10:49:20.024Z,28.17
2018-09-12T10:51:49.038Z,28.37
2018-09-12T10:54:18.047Z,28.53
2018-09-12T10:56:47.115Z,28.75
2018-09-12T10:59:22.788Z,28.54
2018-09-12T11:01:51.828Z,28.43
2018-09-12T11:04:20.873Z,28.51
2018-09-12T11:06:49.876Z,28.44
2018-09-12T11:09:18.927Z,28.59
2018-09-12T11:11:47.936Z,28.61
2018-09-12T11:14:16.980Z,28.62
2018-09-12T11:16:45.991Z,28.82
2018-09-12T11:19:15.303Z,28.80
2018-09-12T11:21:44.311Z,28.98
2018-09-12T11:24:13.336Z,29.09
2018-09-12T11:26:42.381Z,29.20
2018-09-12T11:29:11.400Z,29.57
2018-09-12T11:31:40.750Z,29.66
2018-09-12T11:34:10.556Z,29.65
2018-09-12T11:36:39.524Z,29.77
2018-09-12T11:39:09.732Z,29.92
2018-09-12T11:41:38.768Z,29.74
2018-09-12T11:44:07.835Z,29.97
2018-09-12T11:46:37.035Z,29.88
2018-09-12T11:49:06.486Z,29.88
2018-09-12T11:51:35.476Z,30.11
2018-09-12T11:54:04.499Z,30.22
2018-09-12T11:56:33.540Z,29.97
2018-09-12T11:59:02.711Z,30.15
2018-09-12T12:01:31.740Z,30.41
2018-09-12T12:04:00.808Z,30.43
2018-09-12T12:06:29.819Z,30.47
2018-09-12T12:08:58.933Z,30.29
2018-09-12T12:11:27.935Z,30.59
2018-09-12T12:13:56.999Z,30.60
2018-09-12T12:16:26.014Z,30.60
2018-09-12T12:18:55.007Z,30.79
2018-09-12T12:21:24.042Z,30.83
2018-09-12T12:23:53.050Z,31.00
2018-09-12T12:26:22.083Z,30.76
2018-09-12T12:28:51.088Z,30.92
2018-09-12T12:31:20.127Z,31.13
2018-09-12T12:33:49.136Z,31.29
2018-09-12T12:36:18.419Z,31.22
2018-09-12T12:38:47.703Z,31.34
2018-09-12T12:41:16.752Z,31.22
2018-09-12T12:43:45.784Z,31.22
2018-09-12T12:46:14.802Z,31.16
2018-09-12T12:48:43.971Z,31.46
2018-09-12T12:51:13.004Z,31.33
2018-09-12T12:53:42.011Z,31.15
2018-09-12T12:56:11.091Z,31.02
2018-09-12T12:58:40.151Z,31.01
2018-09-12T13:01:09.216Z,30.90
2018-09-12T13:03:38.229Z,31.26
2018-09-12T13:06:07.683Z,31.45
2018-09-12T13:08:36.752Z,31.46
2018-09-12T13:11:06.092Z,31.46
2018-09-12T13:13:35.135Z,31.58
2018-09-12T13:16:04.160Z,31.76
2018-09-12T13:20:54.855Z,32.03
2018-09-12T13:23:24.159Z,32.14
2018-09-12T13:25:53.166Z,32.38
2018-09-12T13:28:22.175Z,32.43
2018-09-12T13:30:51.228Z,32.54
2018-09-12T13:33:20.351Z,32.40
2018-09-12T13:35:49.435Z,32.33
2018-09-12T13:38:18.491Z,32.03
2018-09-12T13:40:48.527Z,31.74
2018-09-12T13:43:18.247Z,31.96
2018-09-12T13:45:47.309Z,32.37
2018-09-12T13:48:16.412Z,32.32
2018-09-12T13:50:45.435Z,32.32
2018-09-12T13:53:14.480Z,32.40
2018-09-12T13:55:43.500Z,32.14
2018-09-12T13:58:12.771Z,32.23
2018-09-12T14:00:41.844Z,32.01
2018-09-12T14:03:10.949Z,31.77
2018-09-12T14:05:39.979Z,31.91
2018-09-12T14:08:08.994Z,32.11
2018-09-12T14:10:38.110Z,32.11
2018-09-12T14:13:07.242Z,32.15
2018-09-12T14:15:36.239Z,32.29
2018-09-12T14:18:05.374Z,32.33
2018-09-12T14:20:34.379Z,32.15
2018-09-12T14:23:03.473Z,31.99
2018-09-12T14:25:32.483Z,32.15
2018-09-12T14:28:01.487Z,32.17
2018-09-12T14:30:30.523Z,32.06
2018-09-12T14:32:59.536Z,32.04
2018-09-12T14:35:28.607Z,32.05
2018-09-12T14:37:57.658Z,32.10
2018-09-12T14:40:26.727Z,32.21
2018-09-12T14:42:55.764Z,31.99
2018-09-12T14:45:24.767Z,32.11
2018-09-12T14:47:53.812Z,31.85
2018-09-12T14:50:22.820Z,31.72
2018-09-12T14:52:51.852Z,31.79
2018-09-12T14:55:20.908Z,31.48
2018-09-12T14:57:49.948Z,31.74
2018-09-12T15:00:24.173Z,31.69
2018-09-12T15:02:53.228Z,31.60
2018-09-12T15:05:22.399Z,31.55
2018-09-12T15:07:51.411Z,31.55
2018-09-12T15:10:20.454Z,31.45
2018-09-12T15:12:49.451Z,31.44
2018-09-12T15:15:18.491Z,31.42
2018-09-12T15:17:47.631Z,31.46
2018-09-12T15:20:17.155Z,31.45
2018-09-12T15:22:46.206Z,31.26
2018-09-12T15:25:15.779Z,31.24
2018-09-12T15:27:44.823Z,31.29
2018-09-12T15:30:14.051Z,31.20
2018-09-12T15:32:43.094Z,31.10
2018-09-12T15:35:12.088Z,30.97
2018-09-12T15:37:41.115Z,30.95
2018-09-12T15:40:10.119Z,30.94
2018-09-12T15:42:39.150Z,30.91
2018-09-12T15:45:08.191Z,30.77
2018-09-12T15:47:37.235Z,30.66
2018-09-12T15:50:06.283Z,30.59
2018-09-12T15:52:35.307Z,30.57
2018-09-12T15:55:04.383Z,30.48
2018-09-12T15:57:33.435Z,30.39
2018-09-12T16:00:02.458Z,30.34
2018-09-12T16:02:31.487Z,30.22
2018-09-12T16:05:00.508Z,30.15
2018-09-12T16:07:29.547Z,29.90
2018-09-12T16:09:58.559Z,29.86
2018-09-12T16:12:27.596Z,29.73
2018-09-12T16:14:56.610Z,29.59
2018-09-12T16:17:25.615Z,29.49
2018-09-12T16:19:54.645Z,29.38
2018-09-12T16:22:23.655Z,29.30
2018-09-12T16:24:52.711Z,29.15
2018-09-12T16:27:22.114Z,29.21
2018-09-12T16:29:51.156Z,29.18
2018-09-12T16:32:20.195Z,29.14
2018-09-12T16:34:49.210Z,29.12
2018-09-12T16:37:18.249Z,29.05
2018-09-12T16:39:47.259Z,28.95
2018-09-12T16:42:16.724Z,28.84
2018-09-12T16:44:45.760Z,28.71
2018-09-12T16:47:14.816Z,28.57
2018-09-12T16:49:43.824Z,28.43
2018-09-12T16:52:12.836Z,28.27
2018-09-12T16:54:41.901Z,28.16
2018-09-12T16:57:10.926Z,28.04
2018-09-12T16:59:39.968Z,27.93
2018-09-12T17:02:08.982Z,27.85
2018-09-12T17:04:38.135Z,27.73
2018-09-12T17:07:07.176Z,27.69
2018-09-12T17:09:36.296Z,27.59
2018-09-12T17:12:05.323Z,27.44
2018-09-12T17:14:34.352Z,27.28
2018-09-12T17:17:03.368Z,27.16
2018-09-12T17:19:32.451Z,27.01
2018-09-12T17:22:01.537Z,26.83
2018-09-12T17:24:30.556Z,26.64
2018-09-12T17:26:59.607Z,26.39
2018-09-12T17:29:28.646Z,26.11
2018-09-12T17:31:57.696Z,25.87
2018-09-12T17:34:26.703Z,25.65
2018-09-12T17:36:55.720Z,25.39
2018-09-12T17:39:24.739Z,25.19
2018-09-12T17:41:53.761Z,25.00
2018-09-12T17:44:22.798Z,24.81
2018-09-12T17:46:51.907Z,24.66
2018-09-12T17:49:20.911Z,24.47
2018-09-12T17:51:49.920Z,24.30
2018-09-12T17:54:18.947Z,24.16
2018-09-12T17:56:47.967Z,24.00
2018-09-12T17:59:17.003Z,23.85
2018-09-12T18:01:46.023Z,23.73
2018-09-12T18:04:15.047Z,23.63
2018-09-12T18:06:44.056Z,23.48
2018-09-12T18:09:13.100Z,23.37
2018-09-12T18:11:42.138Z,23.19
2018-09-12T18:14:11.147Z,23.05
2018-09-12T18:16:41.122Z,22.89
2018-09-12T18:19:10.124Z,22.71
2018-09-12T18:21:39.563Z,22.58
2018-09-12T18:24:08.628Z,22.43
2018-09-12T18:26:37.575Z,22.37
2018-09-12T18:29:06.712Z,22.30
2018-09-12T18:31:35.763Z,22.18
2018-09-12T18:34:04.907Z,22.06
2018-09-12T18:36:37.609Z,22.05
2018-09-12T18:39:12.367Z,21.91
2018-09-12T18:41:41.607Z,21.83
2018-09-12T18:44:10.651Z,21.77
2018-09-12T18:46:39.666Z,21.73
2018-09-12T18:49:08.702Z,21.75
2018-09-12T18:51:37.720Z,21.69
2018-09-12T18:54:06.848Z,21.67
2018-09-12T18:56:35.852Z,21.64
2018-09-12T18:59:04.960Z,21.76
2018-09-12T19:01:33.987Z,21.77
2018-09-12T19:04:03.003Z,21.76
2018-09-12T19:06:32.064Z,21.77
2018-09-12T19:09:01.095Z,21.71
2018-09-12T19:11:30.119Z,21.70
2018-09-12T19:13:59.146Z,21.65
2018-09-12T19:16:28.154Z,21.61
2018-09-12T19:18:57.187Z,21.55
2018-09-12T19:21:26.272Z,21.52
2018-09-12T19:23:55.240Z,21.47
2018-09-12T19:26:24.290Z,21.44
2018-09-12T19:28:53.291Z,21.43
2018-09-12T19:31:22.436Z,21.31
2018-09-12T19:33:51.623Z,21.29
2018-09-12T19:36:20.587Z,21.19
2018-09-12T19:38:49.599Z,21.14
2018-09-12T19:41:18.739Z,21.10
2018-09-12T19:43:48.019Z,21.00
2018-09-12T19:46:17.076Z,20.90
2018-09-12T19:48:46.476Z,20.85
2018-09-12T19:51:16.406Z,20.74
2018-09-12T19:56:56.785Z,20.64
2018-09-12T19:59:25.910Z,20.67
2018-09-12T20:01:54.834Z,20.63
2018-09-12T20:04:23.795Z,20.59
2018-09-12T20:06:52.773Z,20.59
2018-09-12T20:09:21.706Z,20.59
2018-09-12T20:11:50.669Z,20.66
2018-09-12T20:14:19.815Z,20.80
2018-09-12T20:16:48.745Z,21.03
2018-09-12T20:19:17.840Z,20.91
2018-09-12T20:21:46.834Z,20.85
2018-09-12T20:24:15.764Z,20.79
2018-09-12T20:26:44.758Z,20.71
2018-09-12T20:29:13.917Z,20.65
2018-09-12T20:31:42.913Z,20.67
2018-09-12T20:34:11.907Z,20.65
2018-09-12T20:36:40.901Z,20.54
2018-09-12T20:39:10.873Z,20.47
2018-09-12T20:41:39.913Z,20.39
2018-09-12T20:44:08.907Z,20.35
2018-09-12T20:46:37.901Z,20.36
2018-09-12T20:49:06.895Z,20.17
2018-09-12T20:51:35.817Z,20.12
2018-09-12T20:54:04.868Z,20.07
2018-09-12T20:56:33.877Z,19.94
2018-09-12T20:59:02.874Z,19.89
2018-09-12T21:01:31.793Z,19.90
2018-09-12T21:04:00.756Z,19.93
2018-09-12T21:06:29.718Z,19.83
2018-09-12T21:08:58.711Z,19.74
2018-09-12T21:11:27.687Z,19.64
2018-09-12T21:13:56.652Z,19.52
2018-09-12T21:16:25.627Z,19.39
2018-09-12T21:18:54.577Z,19.35
2018-09-12T21:21:23.614Z,19.24
2018-09-12T21:23:52.629Z,19.04
2018-09-12T21:26:21.702Z,19.20
2018-09-12T21:28:50.659Z,19.08
2018-09-12T21:31:19.900Z,18.99
2018-09-12T21:33:48.994Z,18.90
2018-09-12T21:36:17.987Z,18.84
2018-09-12T21:38:46.981Z,18.77
2018-09-12T21:41:15.975Z,18.73
2018-09-12T21:43:44.969Z,18.63
2018-09-12T21:46:14.066Z,18.63
2018-09-12T21:48:43.060Z,18.61
2018-09-12T21:51:12.057Z,18.73
2018-09-12T21:53:41.049Z,18.72
2018-09-12T21:56:10.144Z,18.68
2018-09-12T21:58:39.298Z,18.64
2018-09-12T22:01:08.361Z,18.57
2018-09-12T22:03:37.327Z,18.52
2018-09-12T22:06:06.347Z,18.45
2018-09-12T22:08:35.526Z,18.37
2018-09-12T22:11:04.526Z,18.29
2018-09-12T22:13:33.513Z,18.26
2018-09-12T22:16:02.506Z,18.24
2018-09-12T22:18:31.502Z,18.17
2018-09-12T22:21:00.495Z,18.09
2018-09-12T22:23:29.490Z,18.05
2018-09-12T22:25:58.417Z,18.04
2018-09-12T22:28:27.377Z,18.05
2018-09-12T22:30:56.574Z,18.01
2018-09-12T22:33:25.576Z,17.93
2018-09-12T22:35:54.561Z,17.93
2018-09-12T22:38:23.499Z,17.91
2018-09-12T22:40:52.550Z,17.89
2018-09-12T22:43:21.545Z,17.86
2018-09-12T22:45:50.618Z,17.82
2018-09-12T22:48:19.634Z,17.78
2018-09-12T22:50:48.629Z,17.76
2018-09-12T22:53:17.553Z,17.79
2018-09-12T22:55:46.509Z,17.77
2018-09-12T22:58:15.526Z,17.75
2018-09-12T23:00:44.504Z,17.71
2018-09-12T23:03:13.666Z,17.66
2018-09-12T23:05:42.907Z,17.69
2018-09-12T23:08:11.894Z,17.74
2018-09-12T23:10:40.889Z,17.67
2018-09-12T23:13:09.985Z,17.68
2018-09-12T23:15:38.902Z,17.70
2018-09-12T23:18:07.878Z,17.61
2018-09-12T23:20:36.866Z,17.54
2018-09-12T23:23:05.985Z,17.43
2018-09-12T23:25:34.946Z,17.37
2018-09-12T23:28:04.052Z,17.30
2018-09-12T23:30:33.050Z,17.27
2018-09-12T23:33:02.042Z,17.21
2018-09-12T23:35:31.037Z,17.19
2018-09-12T23:38:00.030Z,17.18
2018-09-12T23:40:29.026Z,17.13
2018-09-12T23:42:58.020Z,17.10
2018-09-12T23:45:27.011Z,17.19
2018-09-12T23:47:56.005Z,17.16
2018-09-12T23:50:24.929Z,17.12
2018-09-12T23:52:53.993Z,16.98
2018-09-12T23:55:22.987Z,17.03
2018-09-12T23:57:51.898Z,16.95
